Time;durP1;ratioP1;P1;durP2;ratioP2;P2;SDS_P1;SDS_P2;PMS_P1;PMS_P2;Temp;Humidity;BMP_temperature;BMP_pressure;BME280_temperature;BME280_humidity;BME280_pressure;Samples;Min_cycle;Max_cycle;Signal;HPM_P1;HPM_P2
2022/09/12 00:02:21;;;;;;;17.95;16.25;;;13.70;99.90;;;;;;5096444;28;20439;-70
2022/09/12 00:04:47;;;;;;;19.42;17.50;;;13.60;99.90;;;;;;5096331;28;20448;-70
2022/09/12 00:07:12;;;;;;;20.42;17.67;;;13.70;99.90;;;;;;5096800;28;20044;-69
2022/09/12 00:09:38;;;;;;;19.67;16.80;;;13.70;99.90;;;;;;5096732;28;20044;-70
2022/09/12 00:12:04;;;;;;;18.95;16.95;;;13.50;99.90;;;;;;5096412;28;20048;-70
2022/09/12 00:14:30;;;;;;;22.05;19.63;;;13.50;99.90;;;;;;5096017;28;20031;-70
2022/09/12 00:16:59;;;;;;;20.25;17.88;;;13.60;99.90;;;;;;5096467;28;20051;-69
2022/09/12 00:19:26;;;;;;;19.08;15.70;;;13.50;99.90;;;;;;5096722;28;20036;-70
2022/09/12 00:21:52;;;;;;;17.65;15.93;;;13.50;99.90;;;;;;5096432;28;20044;-69
2022/09/12 00:24:17;;;;;;;16.02;14.50;;;13.50;99.90;;;;;;5096471;28;20035;-71
2022/09/12 00:26:43;;;;;;;22.27;19.30;;;13.50;99.90;;;;;;5096672;28;20136;-71
2022/09/12 00:29:14;;;;;;;18.52;15.43;;;13.40;99.90;;;;;;5096407;28;20039;-69
2022/09/12 00:31:40;;;;;;;17.23;13.82;;;13.50;99.90;;;;;;5095783;28;20188;-70
2022/09/12 00:34:05;;;;;;;16.67;14.98;;;13.30;99.90;;;;;;5096146;28;20087;-70
2022/09/12 00:36:31;;;;;;;20.92;17.15;;;13.30;99.90;;;;;;5096274;28;20047;-70
2022/09/12 00:38:57;;;;;;;19.48;17.45;;;13.30;99.90;;;;;;5096059;28;20466;-70
2022/09/12 00:41:29;;;;;;;19.58;17.48;;;13.20;99.90;;;;;;5095692;28;20518;-69
2022/09/12 00:44:16;;;;;;;21.15;18.83;;;13.20;99.90;;;;;;5096011;28;20118;-69
2022/09/12 00:46:51;;;;;;;22.95;20.52;;;13.20;99.90;;;;;;5080950;28;20058;-69
2022/09/12 00:49:40;;;;;;;20.00;17.27;;;13.20;99.90;;;;;;5095949;28;20067;-69
2022/09/12 00:52:28;;;;;;;21.95;16.60;;;13.20;99.90;;;;;;5096182;28;20051;-71
2022/09/12 00:55:01;;;;;;;20.75;18.50;;;13.20;99.90;;;;;;5095809;28;20161;-69
2022/09/12 00:57:53;;;;;;;20.65;18.08;;;13.20;99.90;;;;;;5043466;28;20056;-70
2022/09/12 01:00:21;;;;;;;20.17;18.05;;;13.20;99.90;;;;;;5083982;28;20048;-69
2022/09/12 01:02:55;;;;;;;18.92;15.82;;;13.10;99.90;;;;;;5095754;28;20052;-69
2022/09/12 01:05:22;;;;;;;17.50;15.80;;;13.10;99.90;;;;;;5095531;28;20375;-70
2022/09/12 01:07:49;;;;;;;29.25;19.27;;;13.10;99.90;;;;;;5096049;28;20071;-69
2022/09/12 01:10:16;;;;;;;17.88;16.08;;;13.00;99.90;;;;;;5095362;28;20086;-70
2022/09/12 01:12:43;;;;;;;19.02;16.70;;;13.10;99.90;;;;;;5095401;28;20055;-70
2022/09/12 01:15:10;;;;;;;23.48;19.90;;;13.00;99.90;;;;;;5095325;28;20189;-70
2022/09/12 01:18:03;;;;;;;20.65;18.52;;;13.00;99.90;;;;;;5095529;28;20051;-69
2022/09/12 01:20:50;;;;;;;18.40;16.50;;;13.00;99.90;;;;;;5095049;28;20108;-70
2022/09/12 01:23:53;;;;;;;17.15;15.43;;;13.00;99.90;;;;;;5077232;28;20134;-70
2022/09/12 01:26:49;;;;;;;18.63;16.73;;;12.90;99.90;;;;;;5077804;28;20367;-70
2022/09/12 01:29:39;;;;;;;17.73;15.82;;;12.90;99.90;;;;;;5095866;28;20058;-70
2022/09/12 01:32:22;;;;;;;18.23;16.42;;;12.90;99.90;;;;;;5095187;28;20036;-70
2022/09/12 01:34:51;;;;;;;17.77;15.88;;;12.90;99.90;;;;;;5094551;28;20032;-71
2022/09/12 01:37:33;;;;;;;18.23;15.20;;;12.90;99.90;;;;;;5094631;28;20464;-70
2022/09/12 01:40:10;;;;;;;18.45;16.65;;;12.90;99.90;;;;;;5095118;28;20059;-70
2022/09/12 01:42:50;;;;;;;18.70;15.35;;;12.90;99.90;;;;;;5095499;28;20152;-69
2022/09/12 01:45:26;;;;;;;20.05;15.00;;;12.80;99.90;;;;;;5077536;28;20051;-70
2022/09/12 01:48:15;;;;;;;22.75;19.67;;;12.80;99.90;;;;;;5094885;28;20079;-70
2022/09/12 01:50:59;;;;;;;24.05;20.42;;;12.80;99.90;;;;;;5094961;28;20056;-69
2022/09/12 01:53:37;;;;;;;;;;;12.80;99.90;;;;;;5095524;28;20449;-69
2022/09/12 01:56:19;;;;;;;25.58;20.75;;;12.80;99.90;;;;;;5094882;28;19943;-69
2022/09/12 01:59:00;;;;;;;22.92;19.25;;;12.70;99.90;;;;;;5094752;28;20127;-69
2022/09/12 02:01:29;;;;;;;21.80;19.23;;;12.70;99.90;;;;;;5095086;28;20055;-70
2022/09/12 02:04:10;;;;;;;21.00;18.85;;;12.70;99.90;;;;;;5095083;28;20119;-68
2022/09/12 02:06:51;;;;;;;26.73;22.20;;;12.70;99.90;;;;;;5094796;28;20044;-71
2022/09/12 02:09:31;;;;;;;22.38;19.15;;;12.70;99.90;;;;;;5094808;28;20052;-70
2022/09/12 02:11:58;;;;;;;24.35;21.38;;;12.70;99.90;;;;;;5094734;28;20090;-70
2022/09/12 02:14:29;;;;;;;22.70;20.33;;;12.70;99.90;;;;;;5095207;28;20439;-68
2022/09/12 02:17:00;;;;;;;23.00;20.38;;;12.60;99.90;;;;;;5094663;28;20047;-69
2022/09/12 02:19:34;;;;;;;22.40;19.05;;;12.70;99.90;;;;;;5094442;28;20573;-69
2022/09/12 02:22:02;;;;;;;22.27;19.08;;;12.60;99.90;;;;;;5095027;28;20067;-70
2022/09/12 02:24:32;;;;;;;21.33;18.83;;;12.60;99.90;;;;;;5094972;28;20059;-70
2022/09/12 02:27:11;;;;;;;21.27;18.33;;;12.60;99.90;;;;;;5094861;28;20052;-70
2022/09/12 02:29:36;;;;;;;24.75;20.83;;;12.60;99.90;;;;;;5094607;28;20048;-70
2022/09/12 02:32:31;;;;;;;20.88;18.75;;;12.60;99.90;;;;;;5094914;28;20356;-69
2022/09/12 02:35:07;;;;;;;26.02;21.48;;;12.60;99.90;;;;;;5096361;28;20122;-69
2022/09/12 02:37:51;;;;;;;22.58;20.17;;;12.50;99.90;;;;;;5098731;28;20078;-70
2022/09/12 02:40:17;;;;;;;25.00;20.40;;;12.60;99.90;;;;;;5098231;28;20055;-70
2022/09/12 02:42:43;;;;;;;24.75;21.13;;;12.50;99.90;;;;;;5098355;28;20044;-68
2022/09/12 02:45:11;;;;;;;22.27;19.98;;;12.60;99.90;;;;;;5098556;28;20444;-71
2022/09/12 02:47:48;;;;;;;24.75;19.63;;;12.50;99.90;;;;;;5098148;28;20089;-69
2022/09/12 02:50:13;;;;;;;29.38;22.50;;;12.50;99.90;;;;;;5097940;28;20068;-71
2022/09/12 02:52:41;;;;;;;24.77;19.08;;;12.50;99.90;;;;;;5098038;28;20168;-70
2022/09/12 02:55:10;;;;;;;20.45;18.25;;;12.50;99.90;;;;;;5098132;28;20048;-69
2022/09/12 02:57:36;;;;;;;30.63;23.15;;;12.50;99.90;;;;;;5098042;28;20058;-70
2022/09/12 03:00:03;;;;;;;34.85;27.23;;;12.40;99.90;;;;;;5098314;28;20051;-70
2022/09/12 03:02:52;;;;;;;32.10;25.75;;;12.40;99.90;;;;;;5097978;28;20101;-71
2022/09/12 03:05:30;;;;;;;45.17;30.23;;;12.40;99.90;;;;;;5097505;28;20062;-69
2022/09/12 03:08:34;;;;;;;37.70;27.25;;;12.50;99.90;;;;;;5097837;28;20047;-69
2022/09/12 03:11:33;;;;;;;33.53;26.58;;;12.50;99.90;;;;;;5084214;28;20052;-71
2022/09/12 03:14:27;;;;;;;33.90;25.55;;;12.50;99.90;;;;;;5096924;28;20059;-70
2022/09/12 03:17:02;;;;;;;52.17;32.22;;;12.50;99.90;;;;;;5097837;28;20043;-70
2022/09/12 03:19:39;;;;;;;38.38;26.95;;;12.50;99.90;;;;;;5097304;28;20048;-70
2022/09/12 03:22:08;;;;;;;31.75;26.00;;;12.50;99.90;;;;;;5079493;28;20058;-71
2022/09/12 03:25:17;;;;;;;37.05;27.35;;;12.50;99.90;;;;;;5079602;28;20048;-69
2022/09/12 03:28:00;;;;;;;41.30;28.60;;;12.50;99.90;;;;;;5015122;28;20465;-70
2022/09/12 03:30:26;;;;;;;26.60;21.73;;;12.40;99.90;;;;;;5094967;28;20121;-70
2022/09/12 03:32:53;;;;;;;35.08;27.75;;;12.40;99.90;;;;;;5097401;28;20379;-70
2022/09/12 03:35:21;;;;;;;46.60;31.55;;;12.40;99.90;;;;;;5097341;28;20411;-69
2022/09/12 03:37:48;;;;;;;31.38;24.33;;;12.60;99.90;;;;;;5097431;28;20424;-70
2022/09/12 03:40:14;;;;;;;33.63;26.02;;;12.40;99.90;;;;;;5097269;28;20476;-69
2022/09/12 03:42:40;;;;;;;28.27;22.10;;;12.40;99.90;;;;;;5097358;28;20113;-69
2022/09/12 03:45:07;;;;;;;42.95;29.13;;;12.50;99.90;;;;;;5096643;28;20044;-70
2022/09/12 03:47:34;;;;;;;40.08;28.23;;;12.40;99.90;;;;;;5097410;28;20128;-70
2022/09/12 03:49:59;;;;;;;48.38;33.90;;;12.40;99.90;;;;;;5097046;28;20044;-70
2022/09/12 03:52:25;;;;;;;41.22;28.38;;;12.40;99.90;;;;;;5097124;28;20371;-69
2022/09/12 03:54:51;;;;;;;46.28;31.40;;;12.50;99.90;;;;;;5096995;28;20054;-69
2022/09/12 03:57:16;;;;;;;37.63;28.52;;;12.40;99.90;;;;;;5096894;28;20040;-71
2022/09/12 03:59:42;;;;;;;47.00;33.47;;;12.50;99.90;;;;;;5096871;28;20126;-70
2022/09/12 04:02:11;;;;;;;60.92;36.42;;;12.50;99.90;;;;;;5096846;28;20036;-70
2022/09/12 04:04:37;;;;;;;43.58;30.00;;;12.50;99.90;;;;;;5096635;28;20574;-70
2022/09/12 04:07:02;;;;;;;46.50;31.65;;;12.50;99.90;;;;;;5096653;28;20157;-69
2022/09/12 04:09:28;;;;;;;47.67;30.60;;;12.50;99.90;;;;;;5096870;28;20044;-70
2022/09/12 04:11:53;;;;;;;45.70;31.20;;;12.50;99.90;;;;;;5096648;28;20044;-70
2022/09/12 04:14:19;;;;;;;41.58;30.25;;;12.40;99.90;;;;;;5096576;28;20052;-69
2022/09/12 04:16:44;;;;;;;54.72;33.97;;;12.40;99.90;;;;;;5096735;28;20047;-70
2022/09/12 04:19:11;;;;;;;57.60;33.13;;;12.40;99.90;;;;;;5096165;28;20459;-69
2022/09/12 04:21:38;;;;;;;42.22;29.38;;;12.30;99.90;;;;;;5096656;28;20040;-70
2022/09/12 04:24:03;;;;;;;37.08;27.95;;;12.40;99.90;;;;;;5096422;28;20451;-69
2022/09/12 04:26:30;;;;;;;41.75;27.95;;;12.30;99.90;;;;;;5101098;28;20090;-68
2022/09/12 04:28:56;;;;;;;45.05;30.67;;;12.30;99.90;;;;;;5087714;28;20051;-70
2022/09/12 04:31:23;;;;;;;41.22;29.65;;;12.30;99.90;;;;;;5110550;28;20036;-71
2022/09/12 04:33:53;;;;;;;43.17;30.10;;;12.30;99.90;;;;;;5098185;28;20032;-70
2022/09/12 04:36:19;;;;;;;41.20;29.40;;;12.30;99.90;;;;;;5109127;28;20368;-69
2022/09/12 04:38:46;;;;;;;43.53;29.50;;;12.30;99.90;;;;;;5102291;28;20105;-69
2022/09/12 04:41:13;;;;;;;39.30;28.23;;;12.20;99.90;;;;;;5095959;28;20051;-69
2022/09/12 04:43:39;;;;;;;39.70;27.25;;;12.20;99.90;;;;;;5108893;28;20464;-69
2022/09/12 04:46:07;;;;;;;43.80;30.40;;;12.20;99.90;;;;;;5101308;28;20089;-71
2022/09/12 04:48:32;;;;;;;46.53;29.42;;;12.20;99.90;;;;;;5112283;28;20044;-72
2022/09/12 04:51:16;;;;;;;43.67;29.65;;;12.30;99.90;;;;;;5086514;28;20036;-70
2022/09/12 04:53:42;;;;;;;;;;;12.30;99.90;;;;;;5095901;28;20044;-70
2022/09/12 04:56:09;;;;;;;35.72;25.73;;;12.30;99.90;;;;;;5095749;28;20382;-70
2022/09/12 04:58:36;;;;;;;41.75;28.83;;;12.30;99.90;;;;;;5095442;28;20360;-70
2022/09/12 05:01:07;;;;;;;46.53;30.85;;;12.30;99.90;;;;;;5095713;28;20364;-70
2022/09/12 05:03:33;;;;;;;47.17;31.55;;;12.30;99.90;;;;;;5054237;28;20383;-71
2022/09/12 05:06:01;;;;;;;56.00;34.63;;;12.40;99.90;;;;;;5102046;28;20448;-70
2022/09/12 05:08:26;;;;;;;48.75;31.13;;;12.50;99.90;;;;;;5111892;28;20039;-69
2022/09/12 05:10:52;;;;;;;63.80;33.88;;;12.50;99.90;;;;;;5099099;28;20513;-69
2022/09/12 05:13:17;;;;;;;57.67;34.58;;;12.60;99.90;;;;;;5117019;28;20448;-71
2022/09/12 05:15:52;;;;;;;59.83;35.88;;;12.70;99.90;;;;;;5115694;28;20040;-69
2022/09/12 05:18:18;;;;;;;56.35;33.70;;;12.80;99.90;;;;;;5115894;28;20104;-69
2022/09/12 05:20:43;;;;;;;49.97;32.20;;;13.00;99.90;;;;;;5113655;28;20043;-69
2022/09/12 05:23:09;;;;;;;61.40;36.63;;;12.90;99.90;;;;;;5095079;28;20113;-69
2022/09/12 05:25:35;;;;;;;63.05;36.75;;;13.00;99.90;;;;;;5096493;28;20055;-70
2022/09/12 05:28:00;;;;;;;67.95;36.97;;;13.20;99.90;;;;;;5075960;28;20074;-70
2022/09/12 05:30:26;;;;;;;53.67;34.78;;;13.20;99.90;;;;;;5094892;28;20501;-70
2022/09/12 05:32:51;;;;;;;44.15;30.83;;;13.30;99.90;;;;;;5094465;28;20105;-71
2022/09/12 05:35:17;;;;;;;56.20;34.78;;;13.40;99.90;;;;;;5094284;28;20384;-71
2022/09/12 05:37:43;;;;;;;54.88;33.42;;;13.50;99.90;;;;;;5094465;28;20369;-69
2022/09/12 05:40:08;;;;;;;65.85;37.20;;;13.50;99.90;;;;;;5094548;28;20135;-70
2022/09/12 05:42:35;;;;;;;55.88;32.90;;;13.60;99.90;;;;;;5093950;28;20448;-68
2022/09/12 05:45:00;;;;;;;51.63;31.60;;;13.70;99.90;;;;;;5076658;28;20056;-68
2022/09/12 05:47:26;;;;;;;50.28;32.20;;;13.70;99.90;;;;;;5094819;28;20471;-69
2022/09/12 05:49:52;;;;;;;40.58;28.45;;;13.80;99.90;;;;;;5093858;28;20109;-68
2022/09/12 05:52:19;;;;;;;40.80;29.25;;;13.80;99.90;;;;;;5094301;28;20043;-69
2022/09/12 05:54:45;;;;;;;45.60;31.52;;;13.90;99.90;;;;;;5094610;28;20048;-69
2022/09/12 05:57:11;;;;;;;51.78;31.80;;;14.00;99.90;;;;;;5094378;28;20048;-68
2022/09/12 05:59:36;;;;;;;44.85;30.45;;;14.00;99.90;;;;;;5094113;28;20044;-70
2022/09/12 06:02:02;;;;;;;40.28;28.05;;;14.00;99.90;;;;;;5094539;28;20044;-70
2022/09/12 06:04:27;;;;;;;48.08;31.98;;;14.10;99.90;;;;;;5094315;28;20085;-71
2022/09/12 06:06:54;;;;;;;52.58;32.75;;;14.20;99.90;;;;;;5094597;28;20040;-70
2022/09/12 06:09:19;;;;;;;50.22;33.78;;;14.20;99.90;;;;;;5097123;28;20036;-70
2022/09/12 06:11:45;;;;;;;48.95;33.75;;;14.20;99.90;;;;;;5097986;28;20444;-71
2022/09/12 06:14:14;;;;;;;45.90;28.88;;;14.10;99.90;;;;;;5098460;28;20036;-70
2022/09/12 06:16:39;;;;;;;53.63;32.78;;;14.20;99.90;;;;;;5098379;28;20032;-70
2022/09/12 06:19:11;;;;;;;42.08;30.60;;;14.20;99.90;;;;;;5098015;28;20055;-69
2022/09/12 06:21:38;;;;;;;40.70;28.90;;;14.30;99.90;;;;;;5098476;28;20083;-69
2022/09/12 06:24:04;;;;;;;43.17;30.90;;;14.40;99.90;;;;;;5098550;28;20149;-71
2022/09/12 06:26:30;;;;;;;52.88;33.88;;;14.40;99.90;;;;;;5097783;28;20032;-70
2022/09/12 06:28:58;;;;;;;41.55;28.40;;;14.50;99.90;;;;;;5098516;28;20063;-70
2022/09/12 06:31:27;;;;;;;40.13;29.15;;;14.50;99.90;;;;;;5098230;28;20067;-71
2022/09/12 06:33:53;;;;;;;47.30;31.48;;;14.60;99.90;;;;;;5098063;28;20064;-71
2022/09/12 06:36:24;;;;;;;44.58;29.67;;;14.70;99.90;;;;;;5097471;28;20132;-71
2022/09/12 06:39:08;;;;;;;48.40;30.17;;;14.70;99.90;;;;;;5098107;28;20040;-71
2022/09/12 06:41:34;;;;;;;57.75;35.65;;;14.90;99.90;;;;;;5097802;28;20040;-70
2022/09/12 06:44:01;;;;;;;52.33;34.42;;;14.90;99.90;;;;;;5097406;28;20043;-71
2022/09/12 06:46:27;;;;;;;41.88;30.30;;;15.00;99.90;;;;;;5097775;28;20033;-72
2022/09/12 06:48:58;;;;;;;52.80;33.85;;;15.00;99.90;;;;;;5098977;28;20436;-71
2022/09/12 06:51:24;;;;;;;49.55;33.28;;;15.10;99.90;;;;;;5098765;28;20054;-71
2022/09/12 06:53:49;;;;;;;41.97;29.23;;;15.10;99.90;;;;;;5095239;28;20136;-71
2022/09/12 06:56:18;;;;;;;46.58;32.08;;;15.20;99.90;;;;;;5103125;28;20051;-71
2022/09/12 06:58:44;;;;;;;44.13;30.38;;;15.20;99.90;;;;;;5109074;28;20082;-69
2022/09/12 07:01:14;;;;;;;52.45;31.85;;;15.20;99.90;;;;;;5117485;28;20044;-72
2022/09/12 07:03:41;;;;;;;53.67;34.10;;;15.10;99.90;;;;;;5100073;28;20054;-70
2022/09/12 07:06:09;;;;;;;51.35;33.83;;;15.30;99.90;;;;;;5099734;28;20054;-70
2022/09/12 07:08:36;;;;;;;51.40;34.00;;;15.30;99.90;;;;;;5098631;28;20375;-70
2022/09/12 07:11:19;;;;;;;52.33;34.25;;;15.30;99.90;;;;;;5115544;28;20123;-70
2022/09/12 07:13:47;;;;;;;41.90;29.55;;;15.30;99.90;;;;;;5096874;28;20071;-69
2022/09/12 07:16:13;;;;;;;49.92;33.50;;;15.30;99.90;;;;;;5097283;28;20456;-71
2022/09/12 07:18:39;;;;;;;47.47;32.03;;;15.40;99.90;;;;;;5097608;28;20079;-70
2022/09/12 07:21:11;;;;;;;53.47;33.50;;;15.40;99.90;;;;;;5096813;28;20043;-71
2022/09/12 07:23:38;;;;;;;57.08;34.20;;;15.40;99.90;;;;;;5097364;28;20047;-70
2022/09/12 07:26:05;;;;;;;48.75;33.88;;;15.50;99.90;;;;;;5077469;28;20063;-70
2022/09/12 07:28:32;;;;;;;51.72;34.75;;;15.50;99.90;;;;;;5097297;28;20090;-70
2022/09/12 07:31:08;;;;;;;48.92;33.00;;;15.60;99.90;;;;;;5097582;28;20109;-71
2022/09/12 07:33:34;;;;;;;50.38;31.42;;;15.70;99.90;;;;;;5086114;28;20386;-71
2022/09/12 07:36:05;;;;;;;50.55;32.72;;;15.90;99.90;;;;;;5108288;28;20052;-71
2022/09/12 07:38:31;;;;;;;48.40;31.90;;;15.90;99.90;;;;;;5109554;28;20054;-71
2022/09/12 07:40:57;;;;;;;36.72;27.85;;;16.10;99.90;;;;;;5117402;28;20040;-68
2022/09/12 07:43:23;;;;;;;42.30;29.48;;;16.20;99.90;;;;;;5112763;28;20051;-70
2022/09/12 07:45:54;;;;;;;38.03;27.33;;;16.40;99.90;;;;;;5088129;28;20372;-70
2022/09/12 07:48:20;;;;;;;36.88;26.60;;;16.60;99.90;;;;;;5096488;28;20509;-71
2022/09/12 07:50:46;;;;;;;41.97;27.02;;;16.60;99.90;;;;;;5096705;28;20132;-70
2022/09/12 07:53:11;;;;;;;39.63;28.85;;;16.80;99.90;;;;;;5095979;28;20048;-69
2022/09/12 07:55:37;;;;;;;38.67;27.98;;;16.90;99.90;;;;;;5096743;28;20055;-71
2022/09/12 07:58:03;;;;;;;33.78;24.80;;;16.90;99.90;;;;;;5096294;28;20048;-71
2022/09/12 08:00:34;;;;;;;33.03;24.20;;;17.00;99.90;;;;;;5096441;28;20059;-70
2022/09/12 08:03:01;;;;;;;36.25;25.35;;;17.10;99.90;;;;;;5101162;28;20039;-71
2022/09/12 08:05:28;;;;;;;35.28;26.70;;;17.10;99.90;;;;;;5110954;28;20076;-71
2022/09/12 08:07:54;;;;;;;37.15;25.25;;;17.10;99.90;;;;;;5105600;28;20100;-72
2022/09/12 08:10:20;;;;;;;34.63;23.75;;;17.10;99.90;;;;;;5103084;28;20376;-71
2022/09/12 08:12:45;;;;;;;35.38;24.25;;;17.10;99.90;;;;;;5112209;28;20047;-70
2022/09/12 08:15:11;;;;;;;30.10;22.40;;;17.10;99.90;;;;;;5109657;28;20048;-71
2022/09/12 08:17:36;;;;;;;31.05;22.20;;;17.30;99.90;;;;;;5095841;28;20044;-71
2022/09/12 08:20:03;;;;;;;28.25;21.83;;;17.30;99.90;;;;;;5096158;28;20036;-70
2022/09/12 08:22:30;;;;;;;32.58;21.23;;;17.40;99.90;;;;;;5096201;28;20036;-71
2022/09/12 08:24:55;;;;;;;29.30;20.92;;;17.40;99.90;;;;;;5096091;28;20040;-70
2022/09/12 08:27:21;;;;;;;31.60;21.42;;;17.60;99.90;;;;;;5096295;28;20044;-71
2022/09/12 08:29:47;;;;;;;30.65;20.00;;;17.80;99.90;;;;;;5096084;28;20032;-70
2022/09/12 08:32:12;;;;;;;25.42;19.20;;;17.80;99.90;;;;;;5096132;28;20036;-71
2022/09/12 08:34:38;;;;;;;33.28;20.35;;;18.00;99.90;;;;;;5095846;28;20059;-70
2022/09/12 08:37:04;;;;;;;26.65;19.60;;;18.00;99.90;;;;;;5095211;28;20052;-70
2022/09/12 08:39:31;;;;;;;25.63;17.88;;;18.10;99.90;;;;;;5095530;28;20066;-73
2022/09/12 08:42:02;;;;;;;30.25;19.30;;;18.30;99.90;;;;;;5095660;28;20282;-73
2022/09/12 08:45:00;;;;;;;25.02;19.15;;;18.30;99.90;;;;;;5073695;28;20040;-72
2022/09/12 08:47:28;;;;;;;25.23;18.20;;;18.40;99.90;;;;;;5074982;28;20123;-71
2022/09/12 08:50:02;;;;;;;26.63;19.38;;;18.50;99.90;;;;;;5075228;28;20048;-70
2022/09/12 08:52:49;;;;;;;25.20;17.73;;;18.50;99.90;;;;;;5074775;28;20475;-72
2022/09/12 08:55:41;;;;;;;24.02;17.40;;;18.70;99.90;;;;;;5075517;28;20040;-70
2022/09/12 08:58:19;;;;;;;23.67;17.48;;;18.80;99.90;;;;;;5075438;28;20054;-71
2022/09/12 09:01:04;;;;;;;23.42;17.73;;;18.90;99.90;;;;;;5092966;28;20050;-71
2022/09/12 09:04:07;;;;;;;25.05;18.25;;;19.00;99.90;;;;;;5095361;28;20122;-71
2022/09/12 09:06:33;;;;;;;24.10;17.83;;;19.00;99.90;;;;;;5095391;28;20044;-71
2022/09/12 09:09:07;;;;;;;22.52;16.77;;;19.00;99.90;;;;;;5093850;28;20513;-72
2022/09/12 09:11:53;;;;;;;25.95;16.63;;;19.00;99.90;;;;;;5095079;28;20044;-68
2022/09/12 09:14:47;;;;;;;23.52;16.58;;;19.10;99.90;;;;;;5094166;28;20063;-70
2022/09/12 09:17:33;;;;;;;25.20;18.60;;;19.20;99.90;;;;;;5094957;28;20044;-70
2022/09/12 09:20:14;;;;;;;20.02;15.70;;;19.30;99.90;;;;;;5094228;28;20067;-69
2022/09/12 09:22:52;;;;;;;23.15;17.38;;;19.40;99.90;;;;;;5094919;28;20460;-69
2022/09/12 09:25:34;;;;;;;23.92;17.38;;;19.70;99.90;;;;;;5094762;28;20040;-69
2022/09/12 09:28:05;;;;;;;25.00;18.13;;;19.80;99.90;;;;;;5094353;28;20441;-71
2022/09/12 09:30:34;;;;;;;24.20;17.42;;;20.10;99.90;;;;;;5094541;28;20047;-69
2022/09/12 09:33:02;;;;;;;31.85;19.77;;;20.30;99.90;;;;;;5094644;28;20044;-70
2022/09/12 09:35:44;;;;;;;23.08;16.75;;;20.30;99.90;;;;;;5094433;28;20048;-70
2022/09/12 09:38:16;;;;;;;24.85;18.27;;;20.40;99.90;;;;;;5095113;28;20059;-70
2022/09/12 09:41:07;;;;;;;28.80;19.98;;;20.40;99.90;;;;;;5094985;28;20044;-69
2022/09/12 09:43:33;;;;;;;28.55;18.50;;;20.60;99.90;;;;;;5094006;28;20040;-68
2022/09/12 09:46:01;;;;;;;27.63;18.85;;;20.60;99.90;;;;;;5094952;28;20444;-70
2022/09/12 09:48:31;;;;;;;29.60;19.35;;;20.60;99.90;;;;;;5094620;28;20372;-69
2022/09/12 09:51:00;;;;;;;30.75;21.45;;;20.60;99.90;;;;;;5094189;28;20095;-70
2022/09/12 09:53:29;;;;;;;31.13;22.13;;;20.70;99.90;;;;;;5094747;28;20059;-69
2022/09/12 09:55:56;;;;;;;27.83;19.38;;;20.70;99.90;;;;;;5094615;28;20047;-70
2022/09/12 09:58:35;;;;;;;27.92;19.73;;;20.70;99.90;;;;;;5094802;28;20115;-69
2022/09/12 10:01:05;;;;;;;30.95;18.27;;;20.80;99.90;;;;;;5094605;28;20056;-70
2022/09/12 10:03:37;;;;;;;30.45;19.88;;;20.90;99.90;;;;;;5076858;28;20364;-70
2022/09/12 10:06:29;;;;;;;27.25;19.13;;;21.00;99.90;;;;;;5094037;28;20142;-70
2022/09/12 10:09:16;;;;;;;28.17;20.85;;;21.10;99.90;;;;;;5094593;28;20044;-69
2022/09/12 10:11:41;;;;;;;31.75;21.10;;;21.20;99.90;;;;;;5092869;28;20086;-69
2022/09/12 10:14:27;;;;;;;27.77;19.52;;;21.30;99.90;;;;;;5094156;28;20431;-70
2022/09/12 10:16:53;;;;;;;33.67;22.60;;;21.30;99.90;;;;;;5093388;28;20429;-69
2022/09/12 10:19:31;;;;;;;25.45;19.30;;;21.30;99.90;;;;;;5093659;28;20052;-69
2022/09/12 10:21:57;;;;;;;28.58;19.10;;;21.40;99.90;;;;;;5092687;28;20040;-70
2022/09/12 10:24:51;;;;;;;28.00;19.20;;;21.50;99.90;;;;;;5093569;28;20440;-70
2022/09/12 10:27:43;;;;;;;28.25;18.30;;;21.60;99.90;;;;;;5091104;28;20363;-73
2022/09/12 10:30:18;;;;;;;27.50;15.93;;;21.60;99.90;;;;;;5088828;28;20056;-72
2022/09/12 10:32:51;;;;;;;28.55;18.80;;;21.70;99.90;;;;;;5095781;28;20059;-72
2022/09/12 10:35:27;;;;;;;30.10;20.13;;;21.70;99.90;;;;;;5073631;28;20051;-73
2022/09/12 10:38:03;;;;;;;29.77;20.42;;;21.80;99.90;;;;;;5093659;28;20302;-73
2022/09/12 10:40:41;;;;;;;27.70;18.83;;;21.80;99.90;;;;;;5092939;28;20490;-73
2022/09/12 10:43:24;;;;;;;28.95;18.77;;;21.80;99.90;;;;;;5093582;28;20123;-73
2022/09/12 10:45:50;;;;;;;28.50;18.67;;;21.80;99.90;;;;;;5093382;28;20036;-73
2022/09/12 10:48:32;;;;;;;27.40;17.80;;;21.60;99.90;;;;;;5092638;28;20044;-73
2022/09/12 10:50:59;;;;;;;22.65;16.05;;;21.60;99.90;;;;;;5093554;28;20071;-72
2022/09/12 10:53:27;;;;;;;24.75;15.75;;;21.70;99.90;;;;;;5093009;28;20067;-73
2022/09/12 10:56:27;;;;;;;28.33;17.08;;;21.80;99.90;;;;;;5095488;28;20040;-72
2022/09/12 10:59:08;;;;;;;26.08;17.17;;;21.90;99.90;;;;;;5096651;28;20094;-73
2022/09/12 11:01:49;;;;;;;25.00;17.60;;;22.00;99.90;;;;;;5096418;28;20101;-73
2022/09/12 11:04:23;;;;;;;23.30;16.60;;;22.00;99.90;;;;;;5099541;28;20055;-70
2022/09/12 11:07:04;;;;;;;25.38;15.85;;;22.10;99.90;;;;;;5109114;28;20119;-70
2022/09/12 11:09:41;;;;;;;24.10;14.98;;;22.20;99.90;;;;;;5115703;28;20528;-70
2022/09/12 11:12:21;;;;;;;20.95;13.20;;;22.30;99.90;;;;;;5102115;28;20047;-70
2022/09/12 11:15:06;;;;;;;21.05;15.05;;;22.30;99.90;;;;;;5117898;28;20039;-69
2022/09/12 11:17:50;;;;;;;18.83;13.02;;;22.40;99.90;;;;;;5117669;28;20043;-71
2022/09/12 11:20:28;;;;;;;22.15;15.00;;;22.50;99.90;;;;;;5117497;28;20506;-71
2022/09/12 11:23:24;;;;;;;18.40;11.70;;;22.50;99.90;;;;;;5111036;28;20036;-71
2022/09/12 11:26:01;;;;;;;18.35;11.95;;;22.60;99.90;;;;;;5097515;28;20044;-70
2022/09/12 11:28:45;;;;;;;17.08;11.73;;;22.70;99.90;;;;;;5096811;28;20360;-71
2022/09/12 11:31:29;;;;;;;15.23;10.98;;;22.80;99.90;;;;;;5096446;28;20044;-70
2022/09/12 11:33:59;;;;;;;15.25;10.57;;;22.80;99.90;;;;;;5095088;28;20048;-70
2022/09/12 11:36:44;;;;;;;15.02;9.77;;;22.90;99.90;;;;;;5096406;28;20099;-69
2022/09/12 11:39:14;;;;;;;13.52;9.82;;;22.90;99.90;;;;;;5077832;28;20059;-69
2022/09/12 11:41:48;;;;;;;16.17;10.02;;;22.90;99.90;;;;;;5078976;28;20448;-71
2022/09/12 11:44:16;;;;;;;13.90;9.50;;;23.00;99.90;;;;;;5096495;28;20056;-69
2022/09/12 11:46:43;;;;;;;14.30;8.90;;;23.10;99.90;;;;;;5096273;28;20036;-69
2022/09/12 11:49:12;;;;;;;12.35;8.48;;;23.10;99.90;;;;;;5096326;28;20044;-70
2022/09/12 11:51:52;;;;;;;14.30;9.05;;;23.30;99.90;;;;;;5095708;28;20048;-71
2022/09/12 11:54:38;;;;;;;15.32;8.93;;;23.40;99.90;;;;;;5094884;28;20047;-71
2022/09/12 11:57:19;;;;;;;14.30;10.43;;;23.40;99.90;;;;;;5096327;28;20094;-70
2022/09/12 11:59:48;;;;;;;15.52;10.77;;;23.50;99.90;;;;;;5095490;28;20043;-70
2022/09/12 12:02:27;;;;;;;12.90;9.25;;;23.50;99.90;;;;;;5095777;28;20507;-70
2022/09/12 12:05:30;;;;;;;15.05;10.50;;;23.40;99.90;;;;;;5096052;28;20040;-71
2022/09/12 12:07:58;;;;;;;14.02;8.65;;;23.40;99.90;;;;;;5095807;28;20043;-72
2022/09/12 12:10:28;;;;;;;12.13;7.70;;;23.40;99.90;;;;;;5095110;28;20044;-70
2022/09/12 12:12:55;;;;;;;17.23;10.18;;;23.40;99.90;;;;;;5077340;28;20131;-70
2022/09/12 12:15:22;;;;;;;12.57;8.63;;;23.40;99.90;;;;;;5095185;28;20083;-70
2022/09/12 12:18:16;;;;;;;14.90;9.70;;;23.50;99.90;;;;;;5096056;28;20044;-71
2022/09/12 12:20:42;;;;;;;12.65;8.23;;;23.60;99.90;;;;;;5095326;28;20043;-70
2022/09/12 12:23:27;;;;;;;13.95;9.07;;;23.70;99.90;;;;;;5097333;28;20052;-70
2022/09/12 12:25:55;;;;;;;11.38;6.88;;;23.80;99.90;;;;;;5110056;28;20071;-71
2022/09/12 12:28:39;;;;;;;9.93;7.25;;;23.90;99.90;;;;;;5098725;28;20044;-72
2022/09/12 12:31:06;;;;;;;9.75;6.55;;;23.80;98.80;;;;;;5107238;28;20047;-72
2022/09/12 12:33:31;;;;;;;12.13;8.40;;;23.90;99.90;;;;;;5095293;28;20754;-71
2022/09/12 12:35:59;;;;;;;10.80;8.10;;;24.00;99.90;;;;;;5095072;28;20052;-71
2022/09/12 12:38:32;;;;;;;14.60;8.23;;;24.10;99.90;;;;;;5095091;28;20091;-71
2022/09/12 12:41:16;;;;;;;13.38;9.60;;;24.30;99.90;;;;;;5094883;28;20051;-72
2022/09/12 12:43:45;;;;;;;13.68;9.32;;;24.40;99.90;;;;;;5094829;28;20105;-72
2022/09/12 12:46:16;;;;;;;12.20;7.95;;;24.40;99.90;;;;;;5095026;28;20376;-72
2022/09/12 12:48:46;;;;;;;12.45;7.70;;;24.40;99.90;;;;;;5094822;28;20054;-72
2022/09/12 12:51:52;;;;;;;9.57;6.82;;;24.30;99.90;;;;;;5095190;28;20054;-72
2022/09/12 12:54:46;;;;;;;9.50;6.32;;;24.20;99.90;;;;;;5094470;28;20040;-73
2022/09/12 12:57:12;;;;;;;11.55;8.05;;;24.20;99.90;;;;;;5094595;28;20044;-74